sensor_id;sensor_type;location;lat;lon;timestamp;pressure;altitude;pressure_sealevel;temperature;humidity
19114;BME280;9689;51.052;13.772;2023-08-08T00:04:02;100072.78;;;13.55;75.93
19114;BME280;9689;51.052;13.772;2023-08-08T00:09:03;100069.25;;;13.56;75.23
19114;BME280;9689;51.052;13.772;2023-08-08T00:14:04;100074.69;;;13.50;75.07
19114;BME280;9689;51.052;13.772;2023-08-08T00:19:07;100073.06;;;13.46;74.69
19114;BME280;9689;51.052;13.772;2023-08-08T00:24:08;100059.97;;;13.46;74.23
19114;BME280;9689;51.052;13.772;2023-08-08T00:29:08;100061.75;;;13.46;75.02
19114;BME280;9689;51.052;13.772;2023-08-08T00:34:11;100058.25;;;13.47;73.28
19114;BME280;9689;51.052;13.772;2023-08-08T00:39:11;100054.53;;;13.52;73.09
19114;BME280;9689;51.052;13.772;2023-08-08T00:44:12;100052.03;;;13.49;73.00
19114;BME280;9689;51.052;13.772;2023-08-08T00:49:14;100048.72;;;13.44;73.69
19114;BME280;9689;51.052;13.772;2023-08-08T00:54:15;100053.69;;;13.52;73.33
19114;BME280;9689;51.052;13.772;2023-08-08T00:59:18;100058.00;;;13.53;73.56
19114;BME280;9689;51.052;13.772;2023-08-08T01:04:22;100050.94;;;13.55;72.76
19114;BME280;9689;51.052;13.772;2023-08-08T01:09:30;100055.41;;;13.53;72.58
19114;BME280;9689;51.052;13.772;2023-08-08T01:14:32;100049.56;;;13.45;72.64
19114;BME280;9689;51.052;13.772;2023-08-08T01:19:36;100043.28;;;13.50;71.41
19114;BME280;9689;51.052;13.772;2023-08-08T01:24:38;100035.91;;;13.37;72.22
19114;BME280;9689;51.052;13.772;2023-08-08T01:29:41;100040.56;;;13.28;73.28
19114;BME280;9689;51.052;13.772;2023-08-08T01:34:42;100040.72;;;13.24;73.17
19114;BME280;9689;51.052;13.772;2023-08-08T01:39:45;100036.75;;;13.12;73.88
19114;BME280;9689;51.052;13.772;2023-08-08T01:44:48;100030.69;;;13.10;73.63
19114;BME280;9689;51.052;13.772;2023-08-08T01:49:49;100033.31;;;13.10;74.66
19114;BME280;9689;51.052;13.772;2023-08-08T01:54:51;100043.00;;;13.08;73.42
19114;BME280;9689;51.052;13.772;2023-08-08T01:59:52;100038.81;;;13.02;73.66
19114;BME280;9689;51.052;13.772;2023-08-08T02:04:53;100046.78;;;12.99;73.16
19114;BME280;9689;51.052;13.772;2023-08-08T02:09:55;100039.69;;;13.03;73.28
19114;BME280;9689;51.052;13.772;2023-08-08T02:14:57;100043.00;;;13.08;72.15
19114;BME280;9689;51.052;13.772;2023-08-08T02:19:57;100035.31;;;13.04;72.16
19114;BME280;9689;51.052;13.772;2023-08-08T02:25:00;100038.97;;;12.98;71.80
19114;BME280;9689;51.052;13.772;2023-08-08T02:30:00;100039.94;;;12.95;72.04
19114;BME280;9689;51.052;13.772;2023-08-08T02:35:01;100047.25;;;12.86;72.58
19114;BME280;9689;51.052;13.772;2023-08-08T02:40:04;100044.66;;;12.84;72.82
19114;BME280;9689;51.052;13.772;2023-08-08T02:45:06;100042.09;;;12.83;72.66
19114;BME280;9689;51.052;13.772;2023-08-08T02:50:08;100038.63;;;12.82;72.41
19114;BME280;9689;51.052;13.772;2023-08-08T02:55:10;100037.13;;;12.75;72.14
19114;BME280;9689;51.052;13.772;2023-08-08T03:00:13;100042.47;;;12.72;72.41
19114;BME280;9689;51.052;13.772;2023-08-08T03:05:18;100043.28;;;12.74;71.99
19114;BME280;9689;51.052;13.772;2023-08-08T03:10:23;100047.84;;;12.67;72.36
19114;BME280;9689;51.052;13.772;2023-08-08T03:15:23;100040.06;;;12.66;72.41
19114;BME280;9689;51.052;13.772;2023-08-08T03:20:24;100039.44;;;12.58;72.12
19114;BME280;9689;51.052;13.772;2023-08-08T03:25:27;100041.44;;;12.50;72.89
19114;BME280;9689;51.052;13.772;2023-08-08T03:30:30;100037.38;;;12.41;72.59
19114;BME280;9689;51.052;13.772;2023-08-08T03:35:31;100027.63;;;12.46;73.18
19114;BME280;9689;51.052;13.772;2023-08-08T03:40:34;100032.91;;;12.44;73.11
19114;BME280;9689;51.052;13.772;2023-08-08T03:45:35;100035.59;;;12.43;72.99
19114;BME280;9689;51.052;13.772;2023-08-08T03:50:36;100035.53;;;12.44;73.00
19114;BME280;9689;51.052;13.772;2023-08-08T03:55:38;100036.28;;;12.48;73.25
19114;BME280;9689;51.052;13.772;2023-08-08T04:00:40;100031.91;;;12.49;73.11
19114;BME280;9689;51.052;13.772;2023-08-08T04:05:46;100036.94;;;12.55;72.65
19114;BME280;9689;51.052;13.772;2023-08-08T04:10:48;100034.75;;;12.69;72.34
19114;BME280;9689;51.052;13.772;2023-08-08T04:15:49;100025.72;;;13.02;71.19
19114;BME280;9689;51.052;13.772;2023-08-08T04:20:51;100020.78;;;13.20;70.74
19114;BME280;9689;51.052;13.772;2023-08-08T04:25:53;100014.06;;;13.13;70.66
19114;BME280;9689;51.052;13.772;2023-08-08T04:30:54;100003.47;;;13.16;71.63
19114;BME280;9689;51.052;13.772;2023-08-08T04:35:55;100007.81;;;13.17;71.57
19114;BME280;9689;51.052;13.772;2023-08-08T04:40:57;100010.34;;;13.18;70.65
19114;BME280;9689;51.052;13.772;2023-08-08T04:45:58;100024.91;;;13.27;70.01
19114;BME280;9689;51.052;13.772;2023-08-08T04:50:58;100031.91;;;13.26;70.23
19114;BME280;9689;51.052;13.772;2023-08-08T04:56:01;100033.34;;;13.35;70.33
19114;BME280;9689;51.052;13.772;2023-08-08T05:01:01;100043.75;;;13.37;70.10
19114;BME280;9689;51.052;13.772;2023-08-08T05:06:03;100040.13;;;13.41;69.56
19114;BME280;9689;51.052;13.772;2023-08-08T05:11:05;100032.44;;;13.36;70.09
19114;BME280;9689;51.052;13.772;2023-08-08T05:16:05;100039.97;;;13.45;69.87
19114;BME280;9689;51.052;13.772;2023-08-08T05:21:06;100024.69;;;13.58;69.36
19114;BME280;9689;51.052;13.772;2023-08-08T05:26:08;100024.00;;;13.76;68.62
19114;BME280;9689;51.052;13.772;2023-08-08T05:31:09;100025.63;;;14.02;68.21
19114;BME280;9689;51.052;13.772;2023-08-08T05:36:10;100021.41;;;14.42;66.49
19114;BME280;9689;51.052;13.772;2023-08-08T05:41:13;100015.75;;;14.75;65.29
19114;BME280;9689;51.052;13.772;2023-08-08T05:46:13;100024.59;;;14.92;63.80
19114;BME280;9689;51.052;13.772;2023-08-08T05:51:14;100025.13;;;15.01;63.75
19114;BME280;9689;51.052;13.772;2023-08-08T05:56:16;100019.63;;;14.86;64.28
19114;BME280;9689;51.052;13.772;2023-08-08T06:01:17;100017.34;;;14.99;64.13
19114;BME280;9689;51.052;13.772;2023-08-08T06:06:18;100021.13;;;14.92;63.97
19114;BME280;9689;51.052;13.772;2023-08-08T06:11:20;100021.59;;;14.81;64.79
19114;BME280;9689;51.052;13.772;2023-08-08T06:16:21;100026.78;;;14.83;63.25
19114;BME280;9689;51.052;13.772;2023-08-08T06:21:22;100037.00;;;14.89;63.68
19114;BME280;9689;51.052;13.772;2023-08-08T06:26:25;100036.16;;;14.88;63.01
19114;BME280;9689;51.052;13.772;2023-08-08T06:31:25;100040.56;;;14.88;62.87
19114;BME280;9689;51.052;13.772;2023-08-08T06:36:26;100039.28;;;14.76;63.38
19114;BME280;9689;51.052;13.772;2023-08-08T06:41:29;100039.16;;;14.79;62.58
19114;BME280;9689;51.052;13.772;2023-08-08T06:46:30;100043.66;;;14.76;63.27
19114;BME280;9689;51.052;13.772;2023-08-08T06:51:30;100036.56;;;14.79;64.20
19114;BME280;9689;51.052;13.772;2023-08-08T06:56:32;100031.91;;;14.86;63.82
19114;BME280;9689;51.052;13.772;2023-08-08T07:01:33;100024.19;;;15.03;63.65
19114;BME280;9689;51.052;13.772;2023-08-08T07:06:35;100025.41;;;14.94;62.92
19114;BME280;9689;51.052;13.772;2023-08-08T07:11:37;100026.19;;;14.96;65.59
19114;BME280;9689;51.052;13.772;2023-08-08T07:16:38;100030.19;;;15.05;62.05
19114;BME280;9689;51.052;13.772;2023-08-08T07:21:39;100012.22;;;15.16;62.25
19114;BME280;9689;51.052;13.772;2023-08-08T07:26:41;100003.44;;;15.36;63.36
19114;BME280;9689;51.052;13.772;2023-08-08T07:31:42;100001.50;;;15.41;62.62
19114;BME280;9689;51.052;13.772;2023-08-08T07:36:44;100004.13;;;15.60;61.89
19114;BME280;9689;51.052;13.772;2023-08-08T07:41:46;100009.94;;;15.87;62.52
19114;BME280;9689;51.052;13.772;2023-08-08T07:46:47;100019.38;;;15.91;60.97
19114;BME280;9689;51.052;13.772;2023-08-08T07:51:47;100009.66;;;15.93;61.06
19114;BME280;9689;51.052;13.772;2023-08-08T07:56:50;100026.81;;;16.19;60.24
19114;BME280;9689;51.052;13.772;2023-08-08T08:01:50;100019.50;;;16.62;59.76
19114;BME280;9689;51.052;13.772;2023-08-08T08:06:51;100021.59;;;16.73;59.04
19114;BME280;9689;51.052;13.772;2023-08-08T08:11:53;100017.97;;;16.39;60.13
19114;BME280;9689;51.052;13.772;2023-08-08T08:16:54;100021.41;;;16.58;59.75
19114;BME280;9689;51.052;13.772;2023-08-08T08:21:55;100014.28;;;16.79;58.75
19114;BME280;9689;51.052;13.772;2023-08-08T08:26:58;100002.59;;;16.66;58.45
19114;BME280;9689;51.052;13.772;2023-08-08T08:31:58;100005.34;;;16.99;59.01
19114;BME280;9689;51.052;13.772;2023-08-08T08:37:00;99996.44;;;17.02;56.22
19114;BME280;9689;51.052;13.772;2023-08-08T08:42:03;99991.09;;;17.20;55.48
19114;BME280;9689;51.052;13.772;2023-08-08T08:47:07;99989.94;;;17.42;54.08
19114;BME280;9689;51.052;13.772;2023-08-08T08:52:10;100003.16;;;17.24;54.57
19114;BME280;9689;51.052;13.772;2023-08-08T08:57:12;99990.53;;;17.31;54.33
19114;BME280;9689;51.052;13.772;2023-08-08T09:02:13;100000.69;;;17.21;54.53
19114;BME280;9689;51.052;13.772;2023-08-08T09:07:16;100007.44;;;17.10;54.90
19114;BME280;9689;51.052;13.772;2023-08-08T09:12:21;99994.38;;;16.74;57.46
19114;BME280;9689;51.052;13.772;2023-08-08T09:17:24;100013.50;;;16.58;58.48
19114;BME280;9689;51.052;13.772;2023-08-08T09:22:44;100023.25;;;16.56;58.79
19114;BME280;9689;51.052;13.772;2023-08-08T09:27:47;100025.88;;;16.56;58.44
19114;BME280;9689;51.052;13.772;2023-08-08T09:32:47;100036.25;;;16.42;59.50
19114;BME280;9689;51.052;13.772;2023-08-08T09:37:48;100023.97;;;16.24;60.56
19114;BME280;9689;51.052;13.772;2023-08-08T09:42:52;100023.50;;;16.33;59.92
19114;BME280;9689;51.052;13.772;2023-08-08T09:47:52;100021.44;;;16.39;59.63
19114;BME280;9689;51.052;13.772;2023-08-08T09:52:54;100025.28;;;16.51;59.51
19114;BME280;9689;51.052;13.772;2023-08-08T09:57:57;100013.97;;;16.49;58.68
19114;BME280;9689;51.052;13.772;2023-08-08T10:02:58;100007.78;;;16.86;57.93
19114;BME280;9689;51.052;13.772;2023-08-08T10:08:00;100013.78;;;17.06;58.00
19114;BME280;9689;51.052;13.772;2023-08-08T10:13:03;100012.22;;;17.02;56.96
19114;BME280;9689;51.052;13.772;2023-08-08T10:18:05;100000.31;;;17.12;56.64
19114;BME280;9689;51.052;13.772;2023-08-08T10:23:06;100006.88;;;17.38;54.50
19114;BME280;9689;51.052;13.772;2023-08-08T10:28:10;100010.19;;;17.41;53.03
19114;BME280;9689;51.052;13.772;2023-08-08T10:33:26;100005.53;;;17.62;53.88
19114;BME280;9689;51.052;13.772;2023-08-08T10:38:39;99988.13;;;18.39;51.60
19114;BME280;9689;51.052;13.772;2023-08-08T10:43:48;99990.94;;;18.51;51.10
19114;BME280;9689;51.052;13.772;2023-08-08T10:48:51;99971.84;;;18.16;51.46
19114;BME280;9689;51.052;13.772;2023-08-08T10:53:52;99974.06;;;18.08;52.00
19114;BME280;9689;51.052;13.772;2023-08-08T10:58:54;99975.16;;;18.04;52.95
19114;BME280;9689;51.052;13.772;2023-08-08T11:03:58;99969.63;;;18.08;51.47
19114;BME280;9689;51.052;13.772;2023-08-08T11:09:00;99951.72;;;18.29;50.95
19114;BME280;9689;51.052;13.772;2023-08-08T11:14:10;99953.53;;;18.29;50.88
19114;BME280;9689;51.052;13.772;2023-08-08T11:19:12;99958.03;;;18.57;49.36
19114;BME280;9689;51.052;13.772;2023-08-08T11:24:13;99944.69;;;18.90;48.64
19114;BME280;9689;51.052;13.772;2023-08-08T11:29:16;99932.91;;;19.24;47.30
19114;BME280;9689;51.052;13.772;2023-08-08T11:34:17;99926.84;;;18.93;47.29
19114;BME280;9689;51.052;13.772;2023-08-08T11:39:18;99934.22;;;19.17;46.94
19114;BME280;9689;51.052;13.772;2023-08-08T11:44:21;99916.22;;;19.24;46.38
19114;BME280;9689;51.052;13.772;2023-08-08T11:49:22;99914.41;;;19.67;45.57
19114;BME280;9689;51.052;13.772;2023-08-08T11:54:26;99893.91;;;20.77;43.83
19114;BME280;9689;51.052;13.772;2023-08-08T11:59:30;99886.16;;;20.99;43.24
19114;BME280;9689;51.052;13.772;2023-08-08T12:04:31;99878.72;;;20.92;44.42
19114;BME280;9689;51.052;13.772;2023-08-08T12:09:32;99865.94;;;20.85;43.05
19114;BME280;9689;51.052;13.772;2023-08-08T12:14:37;99872.91;;;21.12;41.78
19114;BME280;9689;51.052;13.772;2023-08-08T12:19:50;99856.69;;;20.91;39.27
19114;BME280;9689;51.052;13.772;2023-08-08T12:24:51;99855.16;;;20.36;40.86
19114;BME280;9689;51.052;13.772;2023-08-08T12:29:53;99865.13;;;20.05;42.04
19114;BME280;9689;51.052;13.772;2023-08-08T12:34:54;99867.44;;;19.97;42.74
19114;BME280;9689;51.052;13.772;2023-08-08T12:39:55;99850.09;;;19.93;42.54
19114;BME280;9689;51.052;13.772;2023-08-08T12:44:57;99855.56;;;19.63;43.74
19114;BME280;9689;51.052;13.772;2023-08-08T12:49:58;99860.72;;;19.38;44.55
19114;BME280;9689;51.052;13.772;2023-08-08T12:54:59;99857.75;;;20.11;41.44
19114;BME280;9689;51.052;13.772;2023-08-08T13:00:01;99848.69;;;20.40;41.20
19114;BME280;9689;51.052;13.772;2023-08-08T13:05:03;99839.25;;;20.11;42.05
19114;BME280;9689;51.052;13.772;2023-08-08T13:10:04;99851.69;;;19.96;45.24
19114;BME280;9689;51.052;13.772;2023-08-08T13:15:08;99858.22;;;19.63;47.34
19114;BME280;9689;51.052;13.772;2023-08-08T13:20:10;99848.16;;;19.41;49.40
19114;BME280;9689;51.052;13.772;2023-08-08T13:25:12;99842.09;;;19.81;48.21
19114;BME280;9689;51.052;13.772;2023-08-08T13:30:15;99832.19;;;20.37;46.95
19114;BME280;9689;51.052;13.772;2023-08-08T13:35:16;99846.56;;;20.32;47.21
19114;BME280;9689;51.052;13.772;2023-08-08T13:40:17;99852.94;;;19.90;46.49
19114;BME280;9689;51.052;13.772;2023-08-08T13:45:19;99873.50;;;18.58;54.08
19114;BME280;9689;51.052;13.772;2023-08-08T13:50:20;99851.78;;;18.39;54.89
19114;BME280;9689;51.052;13.772;2023-08-08T13:55:21;99849.41;;;19.07;53.98
19114;BME280;9689;51.052;13.772;2023-08-08T14:00:23;99847.19;;;18.87;54.22
19114;BME280;9689;51.052;13.772;2023-08-08T14:05:24;99870.06;;;18.72;56.37
19114;BME280;9689;51.052;13.772;2023-08-08T14:10:26;99849.72;;;18.88;52.48
19114;BME280;9689;51.052;13.772;2023-08-08T14:15:28;99855.66;;;19.20;52.70
19114;BME280;9689;51.052;13.772;2023-08-08T14:20:38;99852.81;;;19.24;53.94
19114;BME280;9689;51.052;13.772;2023-08-08T14:25:39;99844.31;;;18.76;52.37
19114;BME280;9689;51.052;13.772;2023-08-08T14:30:41;99849.91;;;18.71;53.57
19114;BME280;9689;51.052;13.772;2023-08-08T14:35:42;99850.28;;;18.79;53.02
19114;BME280;9689;51.052;13.772;2023-08-08T14:40:43;99852.63;;;19.68;52.63
19114;BME280;9689;51.052;13.772;2023-08-08T14:45:45;99841.47;;;20.17;48.03
19114;BME280;9689;51.052;13.772;2023-08-08T14:50:46;99824.72;;;20.69;47.47
19114;BME280;9689;51.052;13.772;2023-08-08T14:55:47;99837.75;;;20.72;46.97
19114;BME280;9689;51.052;13.772;2023-08-08T15:00:50;99839.75;;;20.81;45.79
19114;BME280;9689;51.052;13.772;2023-08-08T15:05:51;99849.81;;;20.76;44.42
19114;BME280;9689;51.052;13.772;2023-08-08T15:10:51;99867.81;;;20.45;48.73
19114;BME280;9689;51.052;13.772;2023-08-08T15:15:54;99880.31;;;19.89;48.55
19114;BME280;9689;51.052;13.772;2023-08-08T15:20:55;99877.66;;;19.62;49.05
19114;BME280;9689;51.052;13.772;2023-08-08T15:25:56;99870.78;;;19.87;49.00
19114;BME280;9689;51.052;13.772;2023-08-08T15:31:00;99867.88;;;19.64;49.79
19114;BME280;9689;51.052;13.772;2023-08-08T15:36:00;99875.56;;;20.21;49.58
19114;BME280;9689;51.052;13.772;2023-08-08T15:41:01;99884.69;;;20.30;47.39
19114;BME280;9689;51.052;13.772;2023-08-08T15:46:03;99899.53;;;20.05;47.02
19114;BME280;9689;51.052;13.772;2023-08-08T15:51:04;99904.47;;;19.97;47.52
19114;BME280;9689;51.052;13.772;2023-08-08T15:56:05;99884.94;;;19.59;47.10
19114;BME280;9689;51.052;13.772;2023-08-08T16:01:07;99911.03;;;19.22;48.22
19114;BME280;9689;51.052;13.772;2023-08-08T16:06:08;99928.78;;;19.20;47.58
19114;BME280;9689;51.052;13.772;2023-08-08T16:11:09;99936.16;;;18.85;47.76
19114;BME280;9689;51.052;13.772;2023-08-08T16:16:11;99941.53;;;18.69;48.85
19114;BME280;9689;51.052;13.772;2023-08-08T16:21:13;99945.44;;;18.62;49.41
19114;BME280;9689;51.052;13.772;2023-08-08T16:26:13;99936.91;;;18.73;49.48
19114;BME280;9689;51.052;13.772;2023-08-08T16:31:17;99959.06;;;18.54;49.99
19114;BME280;9689;51.052;13.772;2023-08-08T16:36:21;99972.91;;;18.44;51.40
19114;BME280;9689;51.052;13.772;2023-08-08T16:41:22;99983.72;;;18.23;52.51
19114;BME280;9689;51.052;13.772;2023-08-08T16:46:24;99980.63;;;18.01;53.94
19114;BME280;9689;51.052;13.772;2023-08-08T16:51:25;99993.63;;;18.04;54.76
19114;BME280;9689;51.052;13.772;2023-08-08T16:56:27;99983.56;;;17.95;55.34
19114;BME280;9689;51.052;13.772;2023-08-08T17:01:30;99982.56;;;17.82;56.29
19114;BME280;9689;51.052;13.772;2023-08-08T17:06:31;99989.53;;;17.83;56.54
19114;BME280;9689;51.052;13.772;2023-08-08T17:11:33;99978.16;;;17.82;57.88
19114;BME280;9689;51.052;13.772;2023-08-08T17:16:35;99967.78;;;19.01;53.69
19114;BME280;9689;51.052;13.772;2023-08-08T17:21:37;99962.16;;;19.07;53.88
19114;BME280;9689;51.052;13.772;2023-08-08T17:26:38;99970.72;;;18.66;54.01
19114;BME280;9689;51.052;13.772;2023-08-08T17:31:40;99968.16;;;18.34;55.89
19114;BME280;9689;51.052;13.772;2023-08-08T17:36:41;99964.38;;;17.93;56.20
19114;BME280;9689;51.052;13.772;2023-08-08T17:41:42;99978.31;;;18.11;55.89
19114;BME280;9689;51.052;13.772;2023-08-08T17:46:44;99976.59;;;17.45;57.67
19114;BME280;9689;51.052;13.772;2023-08-08T17:51:45;99969.78;;;17.25;58.87
19114;BME280;9689;51.052;13.772;2023-08-08T17:56:47;99966.16;;;17.10;59.32
19114;BME280;9689;51.052;13.772;2023-08-08T18:01:49;99966.06;;;16.79;61.42
19114;BME280;9689;51.052;13.772;2023-08-08T18:06:51;99968.28;;;16.86;60.47
19114;BME280;9689;51.052;13.772;2023-08-08T18:11:51;99970.94;;;16.86;60.43
19114;BME280;9689;51.052;13.772;2023-08-08T18:16:54;99970.94;;;16.69;60.60
19114;BME280;9689;51.052;13.772;2023-08-08T18:21:55;99982.59;;;16.81;60.67
19114;BME280;9689;51.052;13.772;2023-08-08T18:26:55;99993.34;;;16.76;60.71
19114;BME280;9689;51.052;13.772;2023-08-08T18:32:01;99989.81;;;16.58;62.41
19114;BME280;9689;51.052;13.772;2023-08-08T18:37:03;99997.31;;;16.49;62.02
19114;BME280;9689;51.052;13.772;2023-08-08T18:42:07;99992.75;;;16.35;63.21
19114;BME280;9689;51.052;13.772;2023-08-08T18:47:18;99996.44;;;16.31;63.42
19114;BME280;9689;51.052;13.772;2023-08-08T18:52:20;100003.16;;;16.19;63.10
19114;BME280;9689;51.052;13.772;2023-08-08T18:57:52;100006.63;;;16.20;62.89
19114;BME280;9689;51.052;13.772;2023-08-08T19:02:55;100005.22;;;16.13;62.40
19114;BME280;9689;51.052;13.772;2023-08-08T19:07:56;100021.06;;;16.11;63.18
19114;BME280;9689;51.052;13.772;2023-08-08T19:12:57;100013.38;;;16.06;62.53
19114;BME280;9689;51.052;13.772;2023-08-08T19:17:59;100013.53;;;16.03;63.09
19114;BME280;9689;51.052;13.772;2023-08-08T19:23:00;100012.44;;;15.90;63.63
19114;BME280;9689;51.052;13.772;2023-08-08T19:28:01;100011.34;;;15.94;63.28
19114;BME280;9689;51.052;13.772;2023-08-08T19:33:04;100011.44;;;15.74;65.38
19114;BME280;9689;51.052;13.772;2023-08-08T19:38:05;100004.13;;;15.60;66.15
19114;BME280;9689;51.052;13.772;2023-08-08T19:43:06;100000.06;;;15.73;65.48
19114;BME280;9689;51.052;13.772;2023-08-08T19:48:10;99998.78;;;15.82;64.21
19114;BME280;9689;51.052;13.772;2023-08-08T19:53:12;100001.28;;;15.85;66.28
19114;BME280;9689;51.052;13.772;2023-08-08T19:58:14;100002.81;;;15.89;66.18
19114;BME280;9689;51.052;13.772;2023-08-08T20:03:17;100000.84;;;15.75;65.98
19114;BME280;9689;51.052;13.772;2023-08-08T20:08:18;99999.56;;;15.65;66.69
19114;BME280;9689;51.052;13.772;2023-08-08T20:13:19;99995.66;;;15.74;67.75
19114;BME280;9689;51.052;13.772;2023-08-08T20:18:21;99993.97;;;15.73;67.71
19114;BME280;9689;51.052;13.772;2023-08-08T20:23:26;99994.63;;;15.58;68.31
19114;BME280;9689;51.052;13.772;2023-08-08T20:28:26;99995.09;;;15.67;67.92
19114;BME280;9689;51.052;13.772;2023-08-08T20:33:28;99999.69;;;15.62;68.82
19114;BME280;9689;51.052;13.772;2023-08-08T20:38:29;100001.63;;;15.77;67.09
19114;BME280;9689;51.052;13.772;2023-08-08T20:43:30;100002.50;;;15.58;66.98
19114;BME280;9689;51.052;13.772;2023-08-08T20:48:32;100000.41;;;15.85;67.52
19114;BME280;9689;51.052;13.772;2023-08-08T20:53:34;100003.59;;;15.72;67.58
19114;BME280;9689;51.052;13.772;2023-08-08T20:58:35;100000.56;;;15.81;67.14
19114;BME280;9689;51.052;13.772;2023-08-08T21:03:37;100014.41;;;16.04;66.26
19114;BME280;9689;51.052;13.772;2023-08-08T21:08:38;100015.53;;;15.98;66.32
19114;BME280;9689;51.052;13.772;2023-08-08T21:13:39;100012.78;;;15.82;66.18
19114;BME280;9689;51.052;13.772;2023-08-08T21:18:42;100015.94;;;15.70;66.61
19114;BME280;9689;51.052;13.772;2023-08-08T21:23:42;100015.94;;;15.70;66.62
19114;BME280;9689;51.052;13.772;2023-08-08T21:28:43;100027.19;;;15.74;67.54
19114;BME280;9689;51.052;13.772;2023-08-08T21:33:46;100026.69;;;15.66;67.09
19114;BME280;9689;51.052;13.772;2023-08-08T21:38:47;100046.16;;;15.60;66.49
19114;BME280;9689;51.052;13.772;2023-08-08T21:43:48;100041.31;;;15.51;65.45
19114;BME280;9689;51.052;13.772;2023-08-08T21:48:51;100045.66;;;15.52;65.35
19114;BME280;9689;51.052;13.772;2023-08-08T21:53:51;100039.75;;;15.47;66.36
19114;BME280;9689;51.052;13.772;2023-08-08T21:58:52;100042.09;;;15.53;67.11
19114;BME280;9689;51.052;13.772;2023-08-08T22:03:54;100049.47;;;15.45;67.26
19114;BME280;9689;51.052;13.772;2023-08-08T22:08:55;100043.75;;;15.35;67.08
19114;BME280;9689;51.052;13.772;2023-08-08T22:13:56;100044.56;;;15.17;68.82
19114;BME280;9689;51.052;13.772;2023-08-08T22:19:01;100047.97;;;14.98;68.17
19114;BME280;9689;51.052;13.772;2023-08-08T22:24:03;100045.97;;;14.83;69.94
19114;BME280;9689;51.052;13.772;2023-08-08T22:29:04;100041.66;;;14.82;67.72
19114;BME280;9689;51.052;13.772;2023-08-08T22:34:06;100043.91;;;14.91;66.75
19114;BME280;9689;51.052;13.772;2023-08-08T22:39:07;100045.28;;;15.00;66.64
19114;BME280;9689;51.052;13.772;2023-08-08T22:44:08;100055.00;;;14.98;67.57
19114;BME280;9689;51.052;13.772;2023-08-08T22:49:10;100064.81;;;14.93;68.25
19114;BME280;9689;51.052;13.772;2023-08-08T22:54:10;100048.81;;;14.99;69.26
19114;BME280;9689;51.052;13.772;2023-08-08T22:59:11;100057.53;;;14.99;69.17
19114;BME280;9689;51.052;13.772;2023-08-08T23:04:13;100052.50;;;14.95;68.36
19114;BME280;9689;51.052;13.772;2023-08-08T23:09:14;100050.00;;;14.92;68.15
19114;BME280;9689;51.052;13.772;2023-08-08T23:14:15;100063.19;;;14.90;67.26
19114;BME280;9689;51.052;13.772;2023-08-08T23:19:17;100052.50;;;14.95;66.01
19114;BME280;9689;51.052;13.772;2023-08-08T23:24:18;100052.94;;;14.84;68.15
19114;BME280;9689;51.052;13.772;2023-08-08T23:29:19;100054.53;;;14.66;68.91
19114;BME280;9689;51.052;13.772;2023-08-08T23:34:22;100045.97;;;14.83;67.08
19114;BME280;9689;51.052;13.772;2023-08-08T23:39:22;100060.41;;;14.73;69.00
19114;BME280;9689;51.052;13.772;2023-08-08T23:44:23;100069.59;;;14.39;70.84
19114;BME280;9689;51.052;13.772;2023-08-08T23:49:25;100054.72;;;14.40;68.83
19114;BME280;9689;51.052;13.772;2023-08-08T23:54:26;100061.97;;;14.33;70.67
19114;BME280;9689;51.052;13.772;2023-08-08T23:59:27;100065.81;;;14.25;71.53
